Surrey, North Dakota
Current Conditions -  °F | °C
As of 2:54 AM on Tuesday 21 Oct 2014 (Local Time) from KMOT Reporting Station
Clear Clear  
Wind Chill: 42°   Ceiling: Unl
Heat Index: 45°   Visibility: 10mi
Dew Point: 34°   Wind: 6mph
Humidity: 65%   Direction: 110°ESE
Pressure: 29.86"   Gusts: NA
Location:  48.24°N, 101.13°W
Report Text: KMOT 210754Z AUTO 11005KT 10SM CLR 07/01 A2986 RMK AO2 SLP115 T00720011
Loading
Personal Weather Stations






























Interactive Weather Map
Tropical Storm Tracking
New forecast layout! Learn more

10-Day Weather Forecast

Advertisements
Track Severe Weather on mobile